Time;durP1;ratioP1;P1;durP2;ratioP2;P2;SDS_P1;SDS_P2;PMS_P1;PMS_P2;Temp;Humidity;BMP_temperature;BMP_pressure;BME280_temperature;BME280_humidity;BME280_pressure;Samples;Min_cycle;Max_cycle;Signal;HPM_P1;HPM_P2
2022/10/16 00:00:34;;;;;;;4.25;2.67;;;11.40;99.90;;;;;;5093724;28;20493;-50
2022/10/16 00:03:01;;;;;;;7.90;2.65;;;11.40;99.90;;;;;;5093548;28;20028;-51
2022/10/16 00:05:27;;;;;;;11.70;2.80;;;11.40;99.90;;;;;;5093846;28;21057;-50
2022/10/16 00:07:53;;;;;;;18.15;3.33;;;11.40;99.90;;;;;;5093757;28;20036;-49
2022/10/16 00:10:19;;;;;;;15.15;2.83;;;11.40;99.90;;;;;;5093414;28;20027;-51
2022/10/16 00:12:44;;;;;;;9.77;3.13;;;11.50;99.90;;;;;;5093129;28;20032;-51
2022/10/16 00:15:10;;;;;;;7.75;2.40;;;11.50;99.90;;;;;;5093549;28;20020;-49
2022/10/16 00:17:35;;;;;;;9.80;3.63;;;11.50;99.90;;;;;;5093719;28;20020;-50
2022/10/16 00:20:01;;;;;;;7.45;3.15;;;11.50;99.90;;;;;;5093357;28;20042;-51
2022/10/16 00:22:27;;;;;;;7.95;3.38;;;11.50;99.90;;;;;;5093068;28;20332;-50
2022/10/16 00:24:52;;;;;;;6.82;3.25;;;11.50;99.90;;;;;;5093389;28;20032;-51
2022/10/16 00:27:18;;;;;;;6.15;3.08;;;11.50;99.90;;;;;;5093153;28;20032;-50
2022/10/16 00:29:43;;;;;;;9.82;2.80;;;11.50;99.90;;;;;;5093394;28;20031;-49
2022/10/16 00:32:09;;;;;;;9.07;3.25;;;11.50;99.90;;;;;;5092977;28;20081;-51
2022/10/16 00:34:35;;;;;;;16.13;3.05;;;11.50;99.90;;;;;;5093235;28;20032;-50
2022/10/16 00:37:01;;;;;;;5.95;2.45;;;11.50;99.90;;;;;;5093055;28;20061;-50
2022/10/16 00:39:26;;;;;;;8.05;2.90;;;11.40;99.90;;;;;;5093111;28;20024;-50
2022/10/16 00:41:52;;;;;;;4.65;2.75;;;11.40;99.90;;;;;;5091531;28;20459;-51
2022/10/16 00:44:42;;;;;;;6.55;2.90;;;11.40;99.90;;;;;;5093036;28;20026;-51
2022/10/16 00:47:10;;;;;;;14.70;2.97;;;11.30;99.90;;;;;;5092765;28;20057;-50
2022/10/16 00:49:36;;;;;;;8.38;3.13;;;11.30;99.90;;;;;;5093000;28;20448;-49
2022/10/16 00:52:02;;;;;;;7.72;2.72;;;11.30;99.90;;;;;;5091774;28;20092;-50
2022/10/16 00:54:30;;;;;;;9.77;3.22;;;11.30;99.90;;;;;;5092758;28;20016;-50
2022/10/16 00:57:00;;;;;;;6.35;3.33;;;11.20;99.90;;;;;;5092741;28;20391;-51
2022/10/16 00:59:29;;;;;;;12.02;2.95;;;11.10;99.90;;;;;;5091452;28;20024;-50
2022/10/16 01:01:57;;;;;;;14.55;2.75;;;11.10;99.90;;;;;;5092543;28;20036;-51
2022/10/16 01:04:24;;;;;;;10.40;2.30;;;11.10;99.90;;;;;;5092567;28;20039;-50
2022/10/16 01:07:08;;;;;;;16.10;3.95;;;11.00;99.90;;;;;;5092318;28;20427;-51
2022/10/16 01:09:56;;;;;;;;;;;11.00;99.90;;;;;;5093042;28;20418;-51
2022/10/16 01:12:51;;;;;;;8.48;2.67;;;11.00;99.90;;;;;;5085987;28;20546;-50
2022/10/16 01:15:35;;;;;;;4.85;2.95;;;11.00;99.90;;;;;;5082805;28;20056;-50
2022/10/16 01:18:06;;;;;;;10.63;2.97;;;10.90;99.90;;;;;;5092332;28;20375;-50
2022/10/16 01:20:37;;;;;;;18.67;5.35;;;10.90;99.90;;;;;;5092406;28;20024;-51
2022/10/16 01:23:38;;;;;;;8.52;2.92;;;10.90;99.90;;;;;;5092019;28;20028;-50
2022/10/16 01:26:48;;;;;;;7.53;3.25;;;10.90;99.90;;;;;;5075567;28;20036;-51
2022/10/16 01:29:31;;;;;;;15.63;2.58;;;10.80;99.90;;;;;;5081111;28;20072;-51
2022/10/16 01:32:01;;;;;;;11.43;2.80;;;10.80;99.90;;;;;;5092011;28;20352;-51
2022/10/16 01:34:39;;;;;;;9.68;2.38;;;10.80;99.90;;;;;;5092204;28;20028;-50
2022/10/16 01:37:18;;;;;;;6.75;2.20;;;10.70;99.90;;;;;;5092020;28;20527;-50
2022/10/16 01:39:46;;;;;;;9.23;2.65;;;10.70;99.90;;;;;;5090673;28;20020;-50
2022/10/16 01:42:18;;;;;;;9.40;2.70;;;10.70;99.90;;;;;;5091568;28;20019;-51
2022/10/16 01:44:47;;;;;;;11.02;2.40;;;10.70;99.90;;;;;;5091967;28;20031;-50
2022/10/16 01:47:13;;;;;;;10.73;2.95;;;10.60;99.90;;;;;;5091833;28;20028;-49
2022/10/16 01:49:40;;;;;;;7.60;2.55;;;10.60;99.90;;;;;;5092028;28;20397;-50
2022/10/16 01:52:10;;;;;;;19.35;2.60;;;10.50;99.90;;;;;;5091482;28;20025;-51
2022/10/16 01:54:40;;;;;;;7.60;2.75;;;10.40;99.90;;;;;;5091820;28;20429;-51
2022/10/16 01:57:08;;;;;;;10.57;2.67;;;10.40;99.90;;;;;;5091676;28;20441;-50
2022/10/16 01:59:38;;;;;;;6.05;2.40;;;10.40;99.90;;;;;;5091991;28;20043;-50
2022/10/16 02:02:07;;;;;;;2.78;2.47;;;10.30;99.90;;;;;;5091364;28;20046;-50
2022/10/16 02:07:26;;;;;;;10.63;2.47;;;10.20;99.90;;;;;;5091081;28;20085;-50
2022/10/16 02:09:52;;;;;;;10.07;2.75;;;10.20;99.90;;;;;;5091835;28;20028;-51
2022/10/16 02:12:28;;;;;;;4.45;2.15;;;10.20;99.90;;;;;;5091270;28;20032;-50
2022/10/16 02:14:54;;;;;;;9.73;2.13;;;10.20;99.90;;;;;;5091654;28;20024;-51
2022/10/16 02:17:20;;;;;;;10.38;2.22;;;10.10;99.90;;;;;;5091496;28;20051;-53
2022/10/16 02:19:48;;;;;;;10.38;2.70;;;10.10;99.90;;;;;;5091696;28;20470;-50
2022/10/16 02:22:39;;;;;;;15.82;2.70;;;10.10;99.90;;;;;;5091205;28;20119;-51
2022/10/16 02:25:15;;;;;;;5.50;2.65;;;10.00;99.90;;;;;;5091443;28;20095;-64
2022/10/16 02:27:54;;;;;;;9.02;2.80;;;10.00;99.90;;;;;;5091320;28;20115;-50
2022/10/16 02:30:26;;;;;;;16.55;2.60;;;10.00;99.90;;;;;;5091480;28;20028;-50
2022/10/16 02:32:53;;;;;;;2.67;2.15;;;10.00;99.90;;;;;;5091194;28;20115;-50
2022/10/16 02:35:20;;;;;;;9.68;2.30;;;9.90;99.90;;;;;;5091254;28;20404;-51
2022/10/16 02:37:48;;;;;;;10.68;2.63;;;9.90;99.90;;;;;;5091519;28;20028;-50
2022/10/16 02:40:15;;;;;;;16.55;3.03;;;9.90;99.90;;;;;;5091289;28;20063;-51
2022/10/16 02:42:41;;;;;;;18.35;3.00;;;9.80;99.90;;;;;;5091211;28;20032;-51
2022/10/16 02:45:08;;;;;;;22.50;2.95;;;9.80;99.90;;;;;;5091204;28;20038;-50
2022/10/16 02:47:34;;;;;;;10.38;2.70;;;9.80;99.90;;;;;;5091164;28;20028;-50
2022/10/16 02:50:00;;;;;;;14.35;2.97;;;9.80;99.90;;;;;;5091109;28;20030;-50
2022/10/16 02:52:25;;;;;;;9.45;2.53;;;9.80;99.90;;;;;;5091274;28;20035;-52
2022/10/16 02:54:51;;;;;;;8.02;2.35;;;9.80;99.90;;;;;;5091154;28;20020;-51
2022/10/16 02:57:17;;;;;;;3.95;2.20;;;9.80;99.90;;;;;;5091078;28;20059;-51
2022/10/16 02:59:43;;;;;;;8.35;2.58;;;9.80;99.90;;;;;;5091182;28;20103;-51
2022/10/16 03:02:09;;;;;;;6.85;2.20;;;9.80;99.90;;;;;;5090871;28;20081;-51
2022/10/16 03:04:35;;;;;;;7.50;2.40;;;9.80;99.90;;;;;;5089912;28;20425;-50
2022/10/16 03:07:00;;;;;;;7.70;2.33;;;9.80;99.90;;;;;;5090841;28;20385;-51
2022/10/16 03:09:26;;;;;;;11.32;2.53;;;9.80;99.90;;;;;;5091025;28;20459;-52
2022/10/16 03:11:52;;;;;;;6.78;2.05;;;9.80;99.90;;;;;;5090870;28;20115;-52
2022/10/16 03:14:17;;;;;;;10.10;1.88;;;9.80;99.90;;;;;;5090277;28;20034;-50
2022/10/16 03:16:43;;;;;;;3.63;1.88;;;9.80;99.90;;;;;;5093631;28;20012;-50
2022/10/16 03:19:09;;;;;;;5.93;1.88;;;9.80;99.90;;;;;;5093755;28;20440;-51
2022/10/16 03:21:34;;;;;;;8.30;3.92;;;9.80;99.90;;;;;;5093330;28;20059;-50
2022/10/16 03:24:00;;;;;;;9.48;3.13;;;9.80;99.90;;;;;;5093361;28;20111;-51
2022/10/16 03:26:26;;;;;;;10.25;2.47;;;9.90;99.90;;;;;;5093762;28;20036;-49
2022/10/16 03:28:51;;;;;;;9.23;2.00;;;9.90;99.90;;;;;;5093683;28;20424;-49
2022/10/16 03:31:17;;;;;;;12.38;3.55;;;9.90;99.90;;;;;;5093800;28;20497;-50
2022/10/16 03:33:43;;;;;;;3.85;1.80;;;9.90;99.90;;;;;;5093149;28;20012;-50
2022/10/16 03:36:08;;;;;;;7.47;1.75;;;9.90;99.90;;;;;;5094251;28;20024;-49
2022/10/16 03:38:34;;;;;;;3.80;1.70;;;9.90;99.90;;;;;;5092985;28;20028;-49
2022/10/16 03:40:59;;;;;;;4.72;1.70;;;9.90;99.90;;;;;;5094069;28;20433;-51
2022/10/16 03:43:25;;;;;;;13.45;2.15;;;9.90;99.90;;;;;;5093989;28;20040;-50
2022/10/16 03:45:51;;;;;;;8.13;2.03;;;9.90;99.90;;;;;;5094074;28;20712;-51
2022/10/16 03:48:18;;;;;;;16.42;3.42;;;9.90;99.90;;;;;;5092705;28;20034;-50
2022/10/16 03:50:43;;;;;;;16.30;2.72;;;9.90;99.90;;;;;;5093994;28;20379;-50
2022/10/16 03:53:09;;;;;;;4.93;1.88;;;9.80;99.90;;;;;;5092618;28;20028;-51
2022/10/16 03:55:35;;;;;;;8.55;2.05;;;9.80;99.90;;;;;;5094153;28;20085;-52
2022/10/16 03:58:01;;;;;;;10.25;2.10;;;9.80;99.90;;;;;;5093569;28;20028;-50
2022/10/16 04:00:27;;;;;;;8.43;2.35;;;9.80;99.90;;;;;;5094043;28;20106;-50
2022/10/16 04:02:52;;;;;;;3.80;2.10;;;9.80;99.90;;;;;;5093881;28;20130;-50
2022/10/16 04:05:18;;;;;;;4.82;2.08;;;9.80;99.90;;;;;;5093482;28;20080;-52
2022/10/16 04:07:44;;;;;;;2.63;2.00;;;9.80;99.90;;;;;;5093564;28;20047;-50
2022/10/16 04:10:10;;;;;;;11.13;2.17;;;9.80;99.90;;;;;;5093391;28;20028;-50
2022/10/16 04:12:36;;;;;;;3.58;1.90;;;9.80;99.90;;;;;;5093620;28;20027;-51
2022/10/16 04:15:01;;;;;;;4.60;2.00;;;9.90;99.90;;;;;;5093569;28;20024;-51
2022/10/16 04:17:27;;;;;;;7.95;1.80;;;10.00;99.90;;;;;;5093734;28;20095;-50
2022/10/16 04:19:53;;;;;;;2.15;1.98;;;10.00;99.90;;;;;;5093355;28;20035;-49
2022/10/16 04:22:18;;;;;;;4.60;1.65;;;10.00;99.90;;;;;;5093412;28;20433;-50
2022/10/16 04:24:44;;;;;;;12.70;1.90;;;9.90;99.90;;;;;;5093443;28;20035;-50
2022/10/16 04:27:10;;;;;;;8.65;2.00;;;9.90;99.90;;;;;;5092999;28;20051;-49
2022/10/16 04:29:35;;;;;;;4.63;1.75;;;9.90;99.90;;;;;;5093070;28;20356;-50
2022/10/16 04:32:01;;;;;;;12.13;2.25;;;9.80;99.90;;;;;;5093195;28;20508;-49
2022/10/16 04:34:26;;;;;;;11.05;2.50;;;9.80;99.90;;;;;;5093342;28;20028;-50
2022/10/16 04:36:52;;;;;;;3.42;2.30;;;9.80;99.90;;;;;;5093154;28;20016;-50
2022/10/16 04:39:18;;;;;;;26.15;2.88;;;9.70;99.90;;;;;;5092711;28;20032;-50
2022/10/16 04:41:43;;;;;;;15.90;2.20;;;9.70;99.90;;;;;;5093069;28;20510;-49
2022/10/16 04:44:09;;;;;;;5.47;2.42;;;9.70;99.90;;;;;;5091737;28;20028;-52
2022/10/16 04:46:34;;;;;;;7.90;2.38;;;9.60;99.90;;;;;;5093025;28;20482;-52
2022/10/16 04:49:00;;;;;;;12.48;1.90;;;9.50;99.90;;;;;;5092503;28;20032;-51
2022/10/16 04:51:27;;;;;;;22.60;2.53;;;9.50;99.90;;;;;;5092905;28;20626;-52
2022/10/16 04:53:54;;;;;;;5.82;1.80;;;9.50;99.90;;;;;;5091612;28;20409;-51
2022/10/16 04:56:20;;;;;;;7.18;2.15;;;9.50;99.90;;;;;;5092831;28;20123;-52
2022/10/16 04:58:46;;;;;;;6.78;1.95;;;9.50;99.90;;;;;;5092690;28;20026;-51
2022/10/16 05:01:13;;;;;;;4.53;1.95;;;9.40;99.90;;;;;;5091044;28;20110;-52
2022/10/16 05:03:38;;;;;;;2.80;2.00;;;9.40;99.90;;;;;;5092656;28;20036;-52
2022/10/16 05:06:06;;;;;;;14.38;2.17;;;9.40;99.90;;;;;;5092478;28;20096;-51
2022/10/16 05:08:32;;;;;;;6.32;2.03;;;9.30;99.90;;;;;;5092366;28;20044;-50
2022/10/16 05:10:57;;;;;;;3.85;2.00;;;9.30;99.90;;;;;;5092491;28;20021;-53
2022/10/16 05:13:23;;;;;;;8.98;1.75;;;9.30;99.90;;;;;;5092365;28;20027;-50
2022/10/16 05:15:49;;;;;;;3.47;2.00;;;9.20;99.90;;;;;;5092485;28;20359;-52
2022/10/16 05:18:15;;;;;;;2.17;2.00;;;9.20;99.90;;;;;;5092056;28;20028;-52
2022/10/16 05:20:42;;;;;;;9.73;2.42;;;9.20;99.90;;;;;;5092451;28;20016;-53
2022/10/16 05:23:09;;;;;;;7.60;2.45;;;9.10;99.90;;;;;;5092098;28;20028;-51
2022/10/16 05:25:35;;;;;;;8.70;2.20;;;9.20;99.90;;;;;;5092443;28;20023;-52
2022/10/16 05:28:01;;;;;;;6.60;2.00;;;9.10;99.90;;;;;;5092167;28;20020;-52
2022/10/16 05:30:27;;;;;;;11.75;2.00;;;9.10;99.90;;;;;;5092172;28;20507;-50
2022/10/16 05:32:53;;;;;;;5.88;2.00;;;9.10;99.90;;;;;;5092103;28;20044;-51
2022/10/16 05:35:19;;;;;;;13.00;2.13;;;9.10;99.90;;;;;;5092064;28;20020;-53
2022/10/16 05:37:46;;;;;;;4.40;2.13;;;9.10;99.90;;;;;;5091579;28;20035;-51
2022/10/16 05:40:13;;;;;;;3.42;1.90;;;9.10;99.90;;;;;;5091740;28;20363;-50
2022/10/16 05:42:39;;;;;;;5.13;1.83;;;9.10;99.90;;;;;;5092006;28;20036;-52
2022/10/16 05:45:06;;;;;;;3.08;2.10;;;9.10;99.90;;;;;;5092054;28;20024;-51
2022/10/16 05:47:32;;;;;;;4.57;2.40;;;9.10;99.90;;;;;;5091814;28;20024;-51
2022/10/16 05:49:58;;;;;;;13.75;2.42;;;9.20;99.90;;;;;;5090360;28;20031;-53
2022/10/16 05:52:23;;;;;;;23.52;2.45;;;9.20;99.90;;;;;;5091782;28;20024;-52
2022/10/16 05:54:49;;;;;;;6.35;2.20;;;9.20;99.90;;;;;;5091956;28;20009;-51
2022/10/16 05:57:15;;;;;;;8.20;2.00;;;9.20;99.90;;;;;;5091839;28;20028;-51
2022/10/16 05:59:41;;;;;;;8.65;2.15;;;9.30;99.90;;;;;;5091522;28;20024;-52
2022/10/16 06:02:18;;;;;;;9.13;2.25;;;9.30;99.90;;;;;;5091280;28;20020;-52
2022/10/16 06:04:44;;;;;;;10.27;2.83;;;9.30;99.90;;;;;;5091747;28;20685;-52
2022/10/16 06:07:10;;;;;;;9.13;2.40;;;9.40;99.90;;;;;;5091212;28;20036;-52
2022/10/16 06:09:35;;;;;;;13.15;4.50;;;9.40;99.90;;;;;;5091631;28;20025;-52
2022/10/16 06:12:01;;;;;;;5.10;2.33;;;9.40;99.90;;;;;;5091356;28;20024;-51
2022/10/16 06:14:26;;;;;;;3.72;1.85;;;9.50;99.90;;;;;;5091686;28;20027;-52
2022/10/16 06:16:52;;;;;;;4.60;2.13;;;9.50;99.90;;;;;;5091357;28;20020;-52
2022/10/16 06:19:18;;;;;;;6.60;2.03;;;9.60;99.90;;;;;;5091272;28;20500;-51
2022/10/16 06:21:44;;;;;;;4.32;2.10;;;9.70;99.90;;;;;;5091407;28;20034;-52
2022/10/16 06:24:10;;;;;;;5.07;2.53;;;9.70;99.90;;;;;;5091209;28;20449;-51
2022/10/16 06:26:37;;;;;;;7.22;2.65;;;9.80;99.90;;;;;;5091433;28;20085;-51
2022/10/16 06:29:02;;;;;;;11.05;2.67;;;10.00;99.90;;;;;;5091242;28;20017;-52
2022/10/16 06:31:30;;;;;;;4.25;2.10;;;10.10;99.90;;;;;;5090080;28;20027;-53
2022/10/16 06:33:56;;;;;;;7.22;2.63;;;10.10;99.90;;;;;;5091370;28;20089;-50
2022/10/16 06:36:28;;;;;;;16.98;2.58;;;10.20;99.90;;;;;;5091500;28;20387;-52
2022/10/16 06:38:54;;;;;;;8.63;2.70;;;10.20;99.90;;;;;;5091409;28;20032;-68
2022/10/16 06:41:21;;;;;;;4.65;2.67;;;10.40;99.90;;;;;;5092487;28;20027;-52
2022/10/16 06:43:48;;;;;;;4.57;3.00;;;10.60;99.90;;;;;;5090967;28;20028;-53
2022/10/16 06:46:17;;;;;;;6.13;2.70;;;10.70;99.90;;;;;;5091080;28;20020;-51
2022/10/16 06:48:42;;;;;;;14.90;3.17;;;10.90;99.90;;;;;;5090710;28;20024;-52
2022/10/16 06:51:22;;;;;;;3.58;2.72;;;11.00;99.90;;;;;;5092006;28;20086;-52
2022/10/16 06:53:51;;;;;;;4.43;3.47;;;11.20;99.90;;;;;;5094618;28;20028;-50
2022/10/16 06:56:21;;;;;;;7.47;4.10;;;11.30;99.90;;;;;;5094934;28;20061;-50
2022/10/16 06:58:48;;;;;;;5.00;3.00;;;11.50;99.90;;;;;;5094573;28;20425;-50
2022/10/16 07:01:15;;;;;;;11.35;2.63;;;11.60;99.90;;;;;;5094312;28;20032;-51
2022/10/16 07:03:43;;;;;;;10.20;2.70;;;11.70;99.90;;;;;;5095037;28;20447;-50
2022/10/16 07:06:11;;;;;;;7.80;2.40;;;11.70;99.90;;;;;;5094761;28;20375;-51
2022/10/16 07:08:40;;;;;;;6.93;2.47;;;11.90;99.90;;;;;;5094538;28;20721;-50
2022/10/16 07:11:11;;;;;;;5.75;2.45;;;12.00;99.90;;;;;;5094924;28;20391;-50
2022/10/16 07:13:38;;;;;;;2.22;2.10;;;12.10;99.90;;;;;;5093163;28;20404;-51
2022/10/16 07:16:09;;;;;;;7.03;2.25;;;12.30;99.90;;;;;;5094676;28;20020;-51
2022/10/16 07:18:36;;;;;;;3.08;2.08;;;12.40;99.90;;;;;;5094880;28;20047;-51
2022/10/16 07:21:13;;;;;;;9.95;2.60;;;12.60;99.90;;;;;;5094567;28;20054;-50
2022/10/16 07:23:39;;;;;;;4.43;2.40;;;12.70;99.90;;;;;;5094675;28;20027;-50
2022/10/16 07:26:06;;;;;;;10.73;2.55;;;12.90;99.90;;;;;;5094514;28;20039;-51
2022/10/16 07:28:32;;;;;;;4.20;2.70;;;13.10;99.90;;;;;;5092986;28;20039;-53
2022/10/16 07:31:13;;;;;;;4.05;2.38;;;13.30;99.90;;;;;;5094655;28;20371;-54
2022/10/16 07:33:41;;;;;;;2.83;2.10;;;13.60;99.90;;;;;;5096334;28;20022;-54
2022/10/16 07:36:07;;;;;;;12.50;2.58;;;13.80;99.90;;;;;;5114677;28;20031;-52
2022/10/16 07:38:33;;;;;;;6.57;2.50;;;14.00;99.90;;;;;;5114431;28;20035;-52
2022/10/16 07:41:07;;;;;;;6.35;2.17;;;14.20;99.90;;;;;;5114581;28;20402;-54
2022/10/16 07:43:33;;;;;;;4.70;2.00;;;14.40;99.90;;;;;;5113540;28;20076;-53
2022/10/16 07:45:59;;;;;;;3.30;2.38;;;14.60;99.90;;;;;;5104963;28;20020;-53
2022/10/16 07:48:29;;;;;;;6.10;2.00;;;14.80;99.90;;;;;;5093788;28;20024;-52
2022/10/16 07:51:03;;;;;;;4.25;1.80;;;15.00;99.90;;;;;;5094086;28;20058;-54
2022/10/16 07:53:29;;;;;;;2.40;1.83;;;15.10;99.90;;;;;;5073730;28;20671;-54
2022/10/16 07:55:59;;;;;;;288.08;149.77;;;15.30;99.90;;;;;;5073804;28;20444;-53
2022/10/16 07:58:26;;;;;;;229.70;144.05;;;15.30;99.90;;;;;;5073624;28;20025;-54
2022/10/16 08:00:51;;;;;;;29.08;21.48;;;15.30;99.90;;;;;;5073401;28;20372;-53
2022/10/16 08:03:17;;;;;;;8.98;7.30;;;15.50;99.90;;;;;;5074206;28;20035;-52
2022/10/16 08:05:42;;;;;;;6.68;3.65;;;15.60;99.90;;;;;;5092347;28;20133;-52
2022/10/16 08:08:13;;;;;;;3.40;3.10;;;15.70;99.90;;;;;;5093222;28;20077;-54
2022/10/16 08:10:38;;;;;;;6.53;2.17;;;15.90;99.90;;;;;;5093734;28;20024;-53
2022/10/16 08:13:04;;;;;;;4.55;2.55;;;16.00;99.90;;;;;;5093449;28;20065;-52
2022/10/16 08:15:30;;;;;;;5.82;2.00;;;16.00;99.90;;;;;;5071717;28;20028;-54
2022/10/16 08:18:01;;;;;;;11.35;2.10;;;16.00;99.90;;;;;;5062885;28;20036;-56
2022/10/16 08:20:28;;;;;;;7.47;1.98;;;16.00;99.90;;;;;;5062340;28;20035;-53
2022/10/16 08:22:54;;;;;;;9.02;2.60;;;16.20;99.90;;;;;;5061856;28;20028;-56
2022/10/16 08:25:21;;;;;;;6.85;2.33;;;16.30;99.90;;;;;;5062428;28;20457;-54
2022/10/16 08:27:47;;;;;;;7.55;2.58;;;16.40;99.90;;;;;;5062331;28;20035;-51
2022/10/16 08:30:13;;;;;;;4.30;2.08;;;16.50;99.90;;;;;;5062126;28;20040;-54
2022/10/16 08:32:41;;;;;;;3.63;1.85;;;16.70;99.90;;;;;;5061574;28;20093;-52
2022/10/16 08:35:07;;;;;;;12.25;1.88;;;16.80;99.90;;;;;;5060794;28;20033;-51
2022/10/16 08:37:33;;;;;;;2.03;1.83;;;16.90;99.90;;;;;;5061543;28;20136;-53
2022/10/16 08:39:59;;;;;;;1.85;1.40;;;16.80;99.90;;;;;;5076893;28;20365;-53
2022/10/16 08:42:52;;;;;;;1.75;1.48;;;16.80;99.90;;;;;;5060873;28;20039;-56
2022/10/16 08:45:32;;;;;;;8.00;1.70;;;17.00;99.90;;;;;;5059871;28;20082;-56
2022/10/16 08:48:15;;;;;;;4.38;1.45;;;17.10;99.90;;;;;;5060816;28;20365;-55
2022/10/16 08:50:41;;;;;;;12.90;1.98;;;17.30;99.90;;;;;;5081671;28;20028;-52
2022/10/16 08:53:10;;;;;;;6.45;1.77;;;17.60;99.90;;;;;;5080223;28;20036;-52
2022/10/16 08:55:45;;;;;;;4.60;1.63;;;17.80;99.90;;;;;;5096199;28;20028;-55
2022/10/16 08:58:16;;;;;;;1.42;1.33;;;18.00;99.90;;;;;;5080103;28;20131;-52
2022/10/16 09:00:44;;;;;;;11.43;3.17;;;18.20;99.90;;;;;;5081254;28;20024;-52
2022/10/16 09:03:24;;;;;;;7.05;1.67;;;18.10;99.90;;;;;;5071350;28;20035;-53
2022/10/16 09:06:24;;;;;;;3.75;1.48;;;18.20;99.90;;;;;;5068856;28;20032;-53
2022/10/16 09:09:22;;;;;;;4.68;1.73;;;18.40;99.90;;;;;;5072162;28;20037;-52
2022/10/16 09:12:19;;;;;;;1.88;1.40;;;18.60;99.90;;;;;;5037852;28;20028;-54
2022/10/16 09:15:21;;;;;;;7.28;1.42;;;18.80;99.90;;;;;;5071800;28;20078;-52
2022/10/16 09:18:25;;;;;;;2.05;1.75;;;19.10;99.90;;;;;;5068639;28;20044;-51
2022/10/16 09:21:04;;;;;;;3.42;1.42;;;19.00;99.90;;;;;;5077875;28;20035;-53
2022/10/16 09:23:34;;;;;;;1.92;1.40;;;19.40;99.90;;;;;;5091659;28;20387;-51
2022/10/16 09:25:59;;;;;;;4.22;1.25;;;19.50;99.90;;;;;;5092269;28;20024;-54
2022/10/16 09:28:26;;;;;;;4.20;1.40;;;19.50;99.90;;;;;;5091981;28;20093;-52
2022/10/16 09:30:51;;;;;;;5.60;1.70;;;19.70;99.90;;;;;;5090420;28;20023;-51
2022/10/16 09:33:21;;;;;;;3.33;1.67;;;19.80;99.90;;;;;;5091189;28;20019;-50
2022/10/16 09:35:58;;;;;;;4.80;1.40;;;19.70;99.90;;;;;;5091491;28;20379;-51
2022/10/16 09:38:32;;;;;;;5.97;1.27;;;19.60;99.90;;;;;;5091446;28;20115;-51
2022/10/16 09:41:00;;;;;;;1.70;1.20;;;19.50;99.90;;;;;;5091276;28;20111;-54
2022/10/16 09:43:46;;;;;;;4.07;0.85;;;19.50;99.90;;;;;;5090008;28;20024;-50
2022/10/16 09:46:27;;;;;;;6.60;1.40;;;19.60;99.90;;;;;;5091146;28;20045;-53
2022/10/16 09:49:02;;;;;;;1.23;1.13;;;19.70;99.90;;;;;;5093855;28;20032;-54
2022/10/16 09:51:37;;;;;;;10.75;1.20;;;20.00;99.90;;;;;;5112327;28;20098;-55
2022/10/16 09:54:06;;;;;;;9.18;1.33;;;20.10;99.90;;;;;;5098406;28;20448;-50
2022/10/16 09:56:35;;;;;;;1.67;1.38;;;20.40;99.90;;;;;;5091523;28;20447;-53
2022/10/16 09:59:10;;;;;;;10.52;1.58;;;20.50;99.90;;;;;;5091654;28;20471;-51
2022/10/16 10:01:39;;;;;;;6.93;1.40;;;20.80;99.90;;;;;;5091783;28;20123;-50
2022/10/16 10:04:06;;;;;;;2.38;1.08;;;21.50;99.90;;;;;;5091416;28;20043;-51
2022/10/16 10:06:37;;;;;;;4.07;1.42;;;22.30;99.90;;;;;;5079752;28;20024;-55
2022/10/16 10:09:44;;;;;;;0.98;0.88;;;23.30;98.00;;;;;;5073255;28;20067;-52
2022/10/16 10:12:20;;;;;;;4.35;1.60;;;23.40;97.50;;;;;;5060494;28;20036;-52
2022/10/16 10:14:51;;;;;;;7.97;1.35;;;23.70;96.40;;;;;;5075968;28;20067;-50
2022/10/16 10:17:20;;;;;;;5.97;1.25;;;24.30;96.30;;;;;;5077112;28;20031;-52
2022/10/16 10:19:54;;;;;;;11.20;1.50;;;24.90;94.80;;;;;;5075768;28;20028;-52
2022/10/16 10:22:24;;;;;;;5.18;1.00;;;25.60;93.30;;;;;;5060663;28;20036;-53
2022/10/16 10:24:57;;;;;;;5.55;0.90;;;26.40;90.20;;;;;;5064804;28;20551;-55
2022/10/16 10:27:40;;;;;;;7.72;0.90;;;27.00;87.50;;;;;;5064683;28;20033;-53
2022/10/16 10:30:17;;;;;;;1.27;1.00;;;28.00;81.70;;;;;;5067785;28;20451;-52
2022/10/16 10:33:07;;;;;;;5.57;0.90;;;27.40;81.20;;;;;;5065082;28;20021;-53
2022/10/16 10:35:45;;;;;;;8.93;1.27;;;27.70;76.70;;;;;;5079687;28;20020;-53
2022/10/16 10:38:27;;;;;;;7.25;1.02;;;28.10;75.10;;;;;;5063297;28;20051;-57
2022/10/16 10:41:09;;;;;;;3.30;0.75;;;28.10;75.70;;;;;;5064363;28;20112;-52
2022/10/16 10:44:12;;;;;;;3.50;0.80;;;29.00;73.50;;;;;;5064477;28;20055;-52
2022/10/16 10:46:49;;;;;;;1.15;0.85;;;29.20;72.80;;;;;;5065032;28;20048;-54
2022/10/16 10:49:36;;;;;;;4.68;0.90;;;29.70;70.60;;;;;;5063660;28;20036;-54
2022/10/16 10:52:07;;;;;;;4.30;0.93;;;29.70;69.90;;;;;;5065235;28;20024;-54
2022/10/16 10:54:40;;;;;;;2.35;0.90;;;30.60;69.50;;;;;;5064409;28;20030;-55
2022/10/16 10:57:34;;;;;;;4.68;0.68;;;30.60;67.40;;;;;;5062316;28;20033;-56
2022/10/16 11:00:20;;;;;;;3.15;0.77;;;29.40;67.00;;;;;;5064190;28;20028;-57
2022/10/16 11:03:02;;;;;;;2.05;0.82;;;29.20;68.00;;;;;;5064284;28;20124;-53
2022/10/16 11:05:41;;;;;;;2.20;0.97;;;27.80;70.20;;;;;;5063419;28;20043;-51
2022/10/16 11:08:18;;;;;;;5.32;1.27;;;27.10;72.50;;;;;;5063018;28;20044;-54
2022/10/16 11:11:29;;;;;;;2.58;0.77;;;27.10;72.70;;;;;;5063452;28;20055;-53
2022/10/16 11:14:13;;;;;;;3.78;0.60;;;27.70;70.20;;;;;;4963838;28;20730;-55
2022/10/16 11:17:01;;;;;;;4.60;0.70;;;28.80;67.50;;;;;;5062405;28;20064;-52
2022/10/16 11:19:29;;;;;;;3.53;0.65;;;30.10;67.60;;;;;;5061871;28;20033;-54
2022/10/16 11:22:13;;;;;;;1.70;0.80;;;31.80;63.40;;;;;;5064148;28;20134;-53
2022/10/16 11:24:47;;;;;;;3.40;0.38;;;31.70;62.50;;;;;;5064455;28;20384;-52
2022/10/16 11:27:19;;;;;;;2.58;0.47;;;31.30;59.00;;;;;;5063401;28;20033;-54
2022/10/16 11:29:57;;;;;;;1.85;0.73;;;30.90;59.60;;;;;;5063997;28;20029;-50
2022/10/16 11:32:28;;;;;;;6.90;1.27;;;29.90;61.60;;;;;;5063285;28;22618;-57
2022/10/16 11:35:02;;;;;;;4.00;0.47;;;29.50;62.40;;;;;;5080123;28;20036;-56
2022/10/16 11:37:32;;;;;;;6.32;0.80;;;29.80;61.90;;;;;;5068827;28;20036;-57
2022/10/16 11:40:25;;;;;;;3.08;1.20;;;29.80;61.50;;;;;;5065199;28;20024;-58
2022/10/16 11:42:57;;;;;;;;;;;30.30;60.70;;;;;;5063488;28;20041;-52
2022/10/16 11:45:39;;;;;;;8.10;0.70;;;30.30;60.10;;;;;;5071657;28;19908;-57
2022/10/16 11:48:46;;;;;;;3.83;0.70;;;30.40;59.30;;;;;;5063290;28;20078;-55
2022/10/16 11:52:00;;;;;;;1.15;0.80;;;30.90;60.80;;;;;;5044628;28;20036;-56
2022/10/16 11:54:46;;;;;;;1.98;1.30;;;31.30;58.10;;;;;;5054789;28;20047;-57
2022/10/16 11:57:19;;;;;;;1.48;0.90;;;31.40;59.00;;;;;;5081961;28;20037;-54
2022/10/16 12:00:10;;;;;;;1.15;0.65;;;31.70;59.90;;;;;;5082576;28;20067;-57
2022/10/16 12:02:55;;;;;;;3.67;0.88;;;32.30;57.60;;;;;;5090978;28;20028;-57
2022/10/16 12:05:39;;;;;;;7.47;1.05;;;32.60;55.90;;;;;;5093576;28;20024;-51
2022/10/16 12:08:14;;;;;;;16.08;1.40;;;32.50;56.70;;;;;;5091169;28;20036;-57
2022/10/16 12:10:42;;;;;;;4.78;0.98;;;32.70;55.50;;;;;;5092356;28;20019;-53
2022/10/16 12:13:30;;;;;;;1.85;0.80;;;32.60;57.90;;;;;;5093141;28;20518;-59
2022/10/16 12:16:14;;;;;;;6.05;1.13;;;32.50;56.50;;;;;;5093555;28;20091;-51
2022/10/16 12:18:44;;;;;;;3.50;1.05;;;32.90;55.70;;;;;;5093404;28;20024;-58
2022/10/16 12:21:13;;;;;;;4.50;0.77;;;33.10;56.80;;;;;;5093633;28;20080;-58
2022/10/16 12:23:51;;;;;;;2.08;0.82;;;33.00;56.00;;;;;;5093232;28;20116;-53
2022/10/16 12:26:34;;;;;;;7.03;0.85;;;32.70;55.30;;;;;;5093359;28;20028;-54
2022/10/16 12:29:28;;;;;;;7.82;0.90;;;32.90;55.30;;;;;;5093160;28;20032;-58
2022/10/16 12:31:54;;;;;;;4.82;1.10;;;33.70;54.90;;;;;;5093258;28;20020;-53
2022/10/16 12:34:31;;;;;;;6.72;1.00;;;32.90;54.70;;;;;;5092907;28;20356;-57
2022/10/16 12:37:26;;;;;;;4.00;0.90;;;32.70;54.90;;;;;;5093052;28;20022;-56
2022/10/16 12:39:54;;;;;;;14.63;1.08;;;32.70;56.30;;;;;;5093163;28;20103;-57
2022/10/16 12:42:33;;;;;;;7.22;1.02;;;32.60;55.70;;;;;;5092652;28;20028;-53
2022/10/16 12:44:59;;;;;;;5.72;1.05;;;32.40;55.30;;;;;;5093119;28;20012;-58
2022/10/16 12:47:31;;;;;;;5.65;1.23;;;33.00;56.00;;;;;;5091963;28;20034;-57
2022/10/16 12:49:57;;;;;;;3.25;0.88;;;32.80;53.70;;;;;;5093178;28;20026;-55
2022/10/16 12:52:39;;;;;;;0.95;0.70;;;32.60;55.40;;;;;;5092464;28;20475;-54
2022/10/16 12:55:12;;;;;;;6.65;1.20;;;33.00;54.60;;;;;;5092124;28;20421;-58
2022/10/16 12:57:40;;;;;;;1.80;1.02;;;33.50;53.70;;;;;;5092216;28;20074;-55
2022/10/16 13:00:26;;;;;;;1.85;1.00;;;33.30;53.70;;;;;;5092686;28;20111;-58
2022/10/16 13:03:20;;;;;;;4.90;1.30;;;33.70;54.30;;;;;;5092710;28;20466;-55
2022/10/16 13:05:48;;;;;;;9.35;1.25;;;34.00;54.70;;;;;;5092725;28;20032;-53
2022/10/16 13:08:26;;;;;;;9.40;2.05;;;33.60;53.40;;;;;;5091805;28;20101;-52
2022/10/16 13:11:02;;;;;;;4.93;1.30;;;33.10;54.50;;;;;;5092338;28;20028;-55
2022/10/16 13:13:50;;;;;;;3.28;1.35;;;33.20;55.80;;;;;;5092499;28;20051;-57